Time;durP1;ratioP1;P1;durP2;ratioP2;P2;SDS_P1;SDS_P2;PMS_P1;PMS_P2;Temp;Humidity;BMP_temperature;BMP_pressure;BME280_temperature;BME280_humidity;BME280_pressure;Samples;Min_cycle;Max_cycle;Signal;HPM_P1;HPM_P2
2022/07/02 00:00:47;;;;;;;5.47;2.10;;;15.40;99.90;;;;;;5051601;28;20055;-57
2022/07/02 00:03:19;;;;;;;5.20;1.80;;;15.40;99.90;;;;;;5051630;28;20025;-57
2022/07/02 00:05:50;;;;;;;6.68;2.00;;;15.30;99.90;;;;;;5051819;28;20033;-57
2022/07/02 00:08:18;;;;;;;8.95;2.05;;;15.20;99.90;;;;;;5052041;28;20184;-57
2022/07/02 00:10:45;;;;;;;5.43;1.80;;;15.10;99.90;;;;;;5051229;28;20032;-58
2022/07/02 00:13:11;;;;;;;7.60;1.95;;;15.10;99.90;;;;;;5051789;28;20021;-58
2022/07/02 00:15:37;;;;;;;5.53;1.85;;;15.10;99.90;;;;;;5051246;28;20029;-58
2022/07/02 00:18:03;;;;;;;5.57;1.85;;;15.00;99.90;;;;;;5051851;28;20033;-58
2022/07/02 00:20:29;;;;;;;6.28;2.10;;;15.00;99.90;;;;;;5051475;28;20473;-58
2022/07/02 00:22:55;;;;;;;5.13;2.00;;;15.00;99.90;;;;;;5051222;28;20099;-59
2022/07/02 00:25:22;;;;;;;5.15;2.17;;;15.00;99.90;;;;;;5051574;28;20033;-57
2022/07/02 00:27:48;;;;;;;7.40;2.25;;;15.10;99.90;;;;;;5051258;28;20024;-57
2022/07/02 00:30:14;;;;;;;4.85;1.77;;;15.00;99.90;;;;;;5051043;28;20035;-58
2022/07/02 00:32:42;;;;;;;4.75;1.80;;;15.10;99.90;;;;;;5051559;28;20543;-58
2022/07/02 00:35:09;;;;;;;6.13;1.85;;;15.20;99.90;;;;;;5051147;28;20047;-58
2022/07/02 00:37:38;;;;;;;5.70;1.90;;;15.40;99.90;;;;;;5051449;28;20028;-58
2022/07/02 00:40:06;;;;;;;5.97;2.08;;;15.50;99.90;;;;;;5051315;28;20033;-57
2022/07/02 00:42:34;;;;;;;8.18;2.05;;;15.50;99.90;;;;;;5051269;28;20025;-57
2022/07/02 00:45:00;;;;;;;7.78;1.65;;;15.50;99.90;;;;;;5051111;28;20433;-57
2022/07/02 00:47:27;;;;;;;4.78;1.60;;;15.60;99.90;;;;;;5049640;28;20489;-57
2022/07/02 00:49:52;;;;;;;5.80;1.73;;;15.70;99.90;;;;;;5051721;28;20025;-58
2022/07/02 00:52:18;;;;;;;2.28;1.50;;;15.80;99.90;;;;;;5050806;28;20124;-58
2022/07/02 00:54:44;;;;;;;2.80;1.50;;;15.90;99.90;;;;;;5051228;28;20386;-57
2022/07/02 00:57:11;;;;;;;6.15;1.80;;;15.90;99.90;;;;;;5050987;28;20087;-57
2022/07/02 00:59:37;;;;;;;4.97;1.55;;;15.90;99.90;;;;;;5051077;28;20044;-58
2022/07/02 01:02:04;;;;;;;6.55;1.58;;;16.00;99.90;;;;;;5051473;28;20409;-58
2022/07/02 01:04:32;;;;;;;7.03;2.03;;;16.00;99.90;;;;;;5055396;28;20029;-58
2022/07/02 01:07:03;;;;;;;5.32;1.55;;;16.10;99.90;;;;;;5054981;28;20041;-57
2022/07/02 01:12:27;;;;;;;5.13;1.55;;;15.80;99.90;;;;;;5055283;28;20090;-56
2022/07/02 01:14:54;;;;;;;2.38;1.40;;;15.80;99.90;;;;;;5055249;28;20033;-59
2022/07/02 01:17:20;;;;;;;4.72;1.40;;;15.80;99.90;;;;;;5055130;28;20044;-57
2022/07/02 01:19:46;;;;;;;5.88;1.63;;;15.80;99.90;;;;;;5054868;28;20119;-57
2022/07/02 01:22:19;;;;;;;5.55;1.30;;;15.80;99.90;;;;;;5053510;28;20104;-57
2022/07/02 01:24:47;;;;;;;4.43;1.58;;;15.80;99.90;;;;;;5054860;28;20024;-57
2022/07/02 01:27:13;;;;;;;3.10;1.45;;;15.80;99.90;;;;;;5054633;28;20509;-57
2022/07/02 01:29:39;;;;;;;5.03;1.60;;;15.80;99.90;;;;;;5054795;28;20543;-57
2022/07/02 01:32:06;;;;;;;6.75;1.58;;;15.90;99.90;;;;;;5054738;28;20025;-58
2022/07/02 01:34:52;;;;;;;5.50;1.73;;;15.90;99.90;;;;;;5054854;28;20029;-58
2022/07/02 01:37:20;;;;;;;5.80;1.50;;;15.90;99.90;;;;;;5055047;28;20024;-59
2022/07/02 01:39:46;;;;;;;5.28;1.80;;;15.80;99.90;;;;;;5055017;28;20033;-58
2022/07/02 01:42:13;;;;;;;3.55;1.55;;;15.80;99.90;;;;;;5054952;28;20028;-58
2022/07/02 01:44:39;;;;;;;4.35;1.40;;;15.80;99.90;;;;;;5054769;28;20032;-58
2022/07/02 01:47:07;;;;;;;4.20;1.58;;;15.80;99.90;;;;;;5053533;28;20025;-59
2022/07/02 01:49:34;;;;;;;6.47;1.48;;;15.80;99.90;;;;;;5055158;28;20029;-59
2022/07/02 01:51:59;;;;;;;3.08;1.70;;;15.70;99.90;;;;;;5054042;28;20510;-58
2022/07/02 01:54:25;;;;;;;3.95;1.52;;;15.60;99.90;;;;;;5054038;28;20041;-58
2022/07/02 01:56:51;;;;;;;4.82;1.67;;;15.60;99.90;;;;;;5054210;28;20021;-57
2022/07/02 01:59:16;;;;;;;4.65;1.67;;;15.40;99.90;;;;;;5054253;28;20501;-57
2022/07/02 02:01:43;;;;;;;5.68;1.63;;;15.40;99.90;;;;;;5054328;28;20025;-58
2022/07/02 02:04:09;;;;;;;3.30;1.60;;;15.30;99.90;;;;;;5054341;28;20032;-58
2022/07/02 02:06:35;;;;;;;8.07;1.95;;;15.20;99.90;;;;;;5054024;28;20485;-57
2022/07/02 02:09:01;;;;;;;5.43;1.40;;;15.10;99.90;;;;;;5054284;28;20070;-58
2022/07/02 02:11:26;;;;;;;6.03;1.70;;;15.10;99.90;;;;;;5053781;28;20108;-58
2022/07/02 02:13:52;;;;;;;4.50;1.70;;;15.10;99.90;;;;;;5053755;28;20036;-58
2022/07/02 02:16:17;;;;;;;5.00;1.75;;;15.10;99.90;;;;;;5053637;28;20032;-58
2022/07/02 02:18:43;;;;;;;5.03;1.58;;;15.10;99.90;;;;;;5053835;28;20041;-58
2022/07/02 02:21:09;;;;;;;4.40;1.70;;;15.20;99.90;;;;;;5053867;28;20059;-58
2022/07/02 02:23:35;;;;;;;4.72;1.50;;;15.20;99.90;;;;;;5053509;28;20025;-57
2022/07/02 02:26:00;;;;;;;5.22;1.73;;;15.20;99.90;;;;;;5053392;28;20025;-58
2022/07/02 02:28:26;;;;;;;4.75;1.80;;;15.20;99.90;;;;;;5054216;28;20032;-58
2022/07/02 02:30:52;;;;;;;5.32;2.17;;;15.20;99.90;;;;;;5053589;28;20108;-57
2022/07/02 02:33:17;;;;;;;4.55;1.40;;;15.20;99.90;;;;;;5053618;28;20048;-57
2022/07/02 02:35:43;;;;;;;5.20;1.60;;;15.30;99.90;;;;;;5053213;28;20029;-57
2022/07/02 02:38:09;;;;;;;3.35;1.67;;;15.20;99.90;;;;;;5053468;28;20503;-57
2022/07/02 02:40:34;;;;;;;3.97;1.52;;;15.20;99.90;;;;;;5053883;28;20053;-57
2022/07/02 02:43:00;;;;;;;5.43;1.75;;;15.20;99.90;;;;;;5053151;28;20025;-57
2022/07/02 02:45:25;;;;;;;5.35;1.73;;;15.20;99.90;;;;;;5053023;28;20072;-57
2022/07/02 02:47:51;;;;;;;4.15;1.60;;;15.20;99.90;;;;;;5053373;28;20389;-57
2022/07/02 02:50:17;;;;;;;7.75;2.00;;;15.30;99.90;;;;;;5053481;28;20108;-57
2022/07/02 02:52:42;;;;;;;3.33;1.30;;;15.30;99.90;;;;;;5053134;28;20124;-57
2022/07/02 02:55:08;;;;;;;3.65;1.65;;;15.40;99.90;;;;;;5052975;28;20067;-57
2022/07/02 02:57:34;;;;;;;3.10;1.45;;;15.40;99.90;;;;;;5053171;28;20039;-57
2022/07/02 02:59:59;;;;;;;4.40;1.95;;;15.40;99.90;;;;;;5053407;28;20037;-58
2022/07/02 03:02:25;;;;;;;4.85;1.73;;;15.40;99.90;;;;;;5052881;28;20367;-58
2022/07/02 03:04:50;;;;;;;4.25;1.95;;;15.40;99.90;;;;;;5053137;28;20064;-58
2022/07/02 03:07:16;;;;;;;4.38;2.05;;;15.40;99.90;;;;;;5053065;28;20065;-58
2022/07/02 03:09:42;;;;;;;7.35;2.50;;;15.30;99.90;;;;;;5053573;28;20043;-58
2022/07/02 03:12:08;;;;;;;4.03;2.00;;;15.20;99.90;;;;;;5052835;28;20100;-58
2022/07/02 03:14:34;;;;;;;6.82;1.90;;;15.20;99.90;;;;;;5052478;28;20402;-57
2022/07/02 03:16:59;;;;;;;5.07;1.95;;;15.20;99.90;;;;;;5051418;28;20032;-57
2022/07/02 03:19:25;;;;;;;4.25;1.98;;;15.20;99.90;;;;;;5052997;28;20429;-57
2022/07/02 03:21:51;;;;;;;6.55;2.20;;;15.20;99.90;;;;;;5052678;28;20078;-57
2022/07/02 03:24:16;;;;;;;5.03;2.03;;;15.20;99.90;;;;;;5052447;28;20540;-57
2022/07/02 03:26:42;;;;;;;3.78;2.05;;;15.00;99.90;;;;;;5052177;28;20040;-57
2022/07/02 03:29:07;;;;;;;5.22;2.22;;;14.90;99.90;;;;;;5052533;28;20040;-57
2022/07/02 03:31:33;;;;;;;5.32;2.40;;;14.80;99.90;;;;;;5052673;28;20087;-57
2022/07/02 03:33:59;;;;;;;6.22;2.30;;;14.90;99.90;;;;;;5052440;28;20021;-57
2022/07/02 03:36:24;;;;;;;4.63;2.33;;;14.80;99.90;;;;;;5051065;28;20068;-58
2022/07/02 03:38:50;;;;;;;6.82;2.30;;;14.80;99.90;;;;;;5052241;28;20025;-57
2022/07/02 03:41:16;;;;;;;3.72;2.33;;;14.70;99.90;;;;;;5052035;28;20108;-57
2022/07/02 03:43:41;;;;;;;4.72;2.00;;;14.60;99.90;;;;;;5052467;28;20501;-57
2022/07/02 03:46:07;;;;;;;9.25;2.28;;;14.60;99.90;;;;;;5051907;28;20032;-57
2022/07/02 03:48:33;;;;;;;3.13;2.00;;;14.50;99.90;;;;;;5052001;28;20438;-57
2022/07/02 03:50:59;;;;;;;7.07;2.10;;;14.40;99.90;;;;;;5052082;28;20090;-57
2022/07/02 03:53:24;;;;;;;4.80;2.53;;;14.40;99.90;;;;;;5052235;28;20027;-57
2022/07/02 03:55:50;;;;;;;4.25;2.50;;;14.40;99.90;;;;;;5051680;28;20017;-58
2022/07/02 03:58:15;;;;;;;8.45;2.00;;;14.20;99.90;;;;;;5052241;28;20028;-57
2022/07/02 04:00:41;;;;;;;4.88;2.30;;;14.10;99.90;;;;;;5051814;28;20545;-57
2022/07/02 04:03:09;;;;;;;5.43;1.98;;;14.10;99.90;;;;;;5051709;28;20108;-57
2022/07/02 04:05:35;;;;;;;5.47;2.10;;;14.10;99.90;;;;;;5051778;28;20021;-57
2022/07/02 04:08:01;;;;;;;4.28;1.95;;;14.00;99.90;;;;;;5050705;28;20500;-58
2022/07/02 04:10:26;;;;;;;5.88;2.42;;;14.00;99.90;;;;;;5051921;28;20032;-57
2022/07/02 04:12:52;;;;;;;3.75;2.22;;;14.00;99.90;;;;;;5051450;28;20029;-57
2022/07/02 04:15:18;;;;;;;6.50;3.00;;;14.00;99.90;;;;;;5051773;28;20025;-57
2022/07/02 04:17:43;;;;;;;6.70;2.33;;;13.90;99.90;;;;;;5051467;28;20039;-57
2022/07/02 04:20:09;;;;;;;7.15;2.40;;;13.90;99.90;;;;;;5051758;28;20029;-57
2022/07/02 04:22:35;;;;;;;9.55;2.80;;;13.90;99.90;;;;;;5051902;28;20323;-58
2022/07/02 04:25:00;;;;;;;9.00;2.60;;;13.80;99.90;;;;;;5050096;28;20032;-58
2022/07/02 04:27:26;;;;;;;7.00;3.00;;;13.80;99.90;;;;;;5051907;28;20040;-57
2022/07/02 04:29:52;;;;;;;8.75;2.88;;;13.90;99.90;;;;;;5051767;28;20394;-57
2022/07/02 04:32:17;;;;;;;9.90;2.92;;;13.80;99.90;;;;;;5051574;28;20033;-57
2022/07/02 04:34:43;;;;;;;6.40;2.72;;;13.80;99.90;;;;;;5051251;28;20040;-58
2022/07/02 04:37:08;;;;;;;4.80;2.60;;;13.90;99.90;;;;;;5050942;28;20029;-58
2022/07/02 04:39:34;;;;;;;7.80;2.95;;;13.90;99.90;;;;;;5051824;28;20421;-57
2022/07/02 04:42:00;;;;;;;4.88;2.60;;;13.90;99.90;;;;;;5051102;28;20436;-57
2022/07/02 04:44:26;;;;;;;5.68;2.88;;;13.80;99.90;;;;;;5051206;28;20036;-57
2022/07/02 04:46:52;;;;;;;3.88;2.65;;;13.70;99.90;;;;;;5051854;28;20108;-57
2022/07/02 04:49:18;;;;;;;9.82;3.22;;;13.80;99.90;;;;;;5051545;28;20116;-57
2022/07/02 04:51:44;;;;;;;8.82;2.80;;;13.80;99.90;;;;;;5051064;28;20116;-57
2022/07/02 04:54:09;;;;;;;5.85;3.05;;;13.80;99.90;;;;;;5050327;28;20123;-57
2022/07/02 04:56:35;;;;;;;8.52;3.15;;;13.80;99.90;;;;;;5051383;28;20056;-57
2022/07/02 04:59:01;;;;;;;7.47;2.90;;;13.80;99.90;;;;;;5051695;28;20025;-58
2022/07/02 05:01:28;;;;;;;6.15;3.10;;;13.80;99.90;;;;;;5051112;28;20108;-58
2022/07/02 05:03:54;;;;;;;10.50;2.85;;;13.80;99.90;;;;;;5051350;28;20025;-58
2022/07/02 05:06:21;;;;;;;8.50;3.97;;;13.90;99.90;;;;;;5050103;28;20128;-57
2022/07/02 05:08:50;;;;;;;8.50;3.03;;;13.80;99.90;;;;;;5051033;28;20036;-57
2022/07/02 05:11:18;;;;;;;7.63;3.10;;;13.90;99.90;;;;;;5051303;28;20036;-57
2022/07/02 05:13:43;;;;;;;6.05;2.60;;;14.00;99.90;;;;;;5051339;28;20478;-57
2022/07/02 05:16:09;;;;;;;6.15;2.88;;;14.10;99.90;;;;;;5051440;28;20031;-57
2022/07/02 05:18:35;;;;;;;4.20;2.60;;;14.10;99.90;;;;;;5051060;28;20029;-58
2022/07/02 05:21:00;;;;;;;5.85;2.65;;;14.20;99.90;;;;;;5050937;28;20028;-58
2022/07/02 05:23:26;;;;;;;6.28;2.95;;;14.30;99.90;;;;;;5051078;28;20060;-57
2022/07/02 05:25:52;;;;;;;6.65;3.00;;;14.40;99.90;;;;;;5050985;28;20031;-57
2022/07/02 05:28:18;;;;;;;5.85;2.53;;;14.40;99.90;;;;;;5051192;28;20025;-57
2022/07/02 05:30:44;;;;;;;7.32;2.70;;;14.50;99.90;;;;;;5051107;28;20371;-57
2022/07/02 05:33:10;;;;;;;6.38;2.50;;;14.60;99.90;;;;;;5050722;28;20039;-57
2022/07/02 05:35:35;;;;;;;7.75;2.60;;;14.70;99.90;;;;;;5050386;28;20029;-57
2022/07/02 05:38:01;;;;;;;3.03;2.25;;;14.80;99.90;;;;;;5050575;28;20044;-57
2022/07/02 05:40:27;;;;;;;8.65;2.78;;;14.80;99.90;;;;;;5051045;28;20044;-57
2022/07/02 05:42:53;;;;;;;3.92;2.50;;;14.90;99.90;;;;;;5050618;28;20056;-56
2022/07/02 05:45:18;;;;;;;6.38;2.42;;;14.90;99.90;;;;;;5050179;28;20037;-55
2022/07/02 05:47:44;;;;;;;7.38;2.40;;;15.00;99.90;;;;;;5050348;28;20053;-55
2022/07/02 05:50:10;;;;;;;4.05;2.22;;;15.10;99.90;;;;;;5053879;28;20074;-55
2022/07/02 05:52:36;;;;;;;7.28;2.58;;;15.10;99.90;;;;;;5054381;28;20037;-57
2022/07/02 05:55:02;;;;;;;9.25;2.85;;;15.30;99.90;;;;;;5053853;28;20021;-57
2022/07/02 05:57:27;;;;;;;4.80;1.65;;;15.40;99.90;;;;;;5054162;28;20028;-57
2022/07/02 05:59:53;;;;;;;6.88;2.13;;;15.40;99.90;;;;;;5052863;28;20024;-57
2022/07/02 06:02:18;;;;;;;10.43;2.88;;;15.50;99.90;;;;;;5053630;28;20083;-57
2022/07/02 06:04:44;;;;;;;7.50;2.03;;;15.60;99.90;;;;;;5054011;28;20033;-57
2022/07/02 06:09:57;;;;;;;5.15;2.05;;;15.80;99.90;;;;;;5053742;28;20040;-57
2022/07/02 06:12:23;;;;;;;8.35;2.13;;;16.00;99.90;;;;;;5053473;28;20032;-58
2022/07/02 06:14:48;;;;;;;5.88;1.92;;;16.00;99.90;;;;;;5052540;28;20029;-56
2022/07/02 06:17:14;;;;;;;4.50;2.10;;;16.00;99.90;;;;;;5053572;28;20047;-57
2022/07/02 06:19:40;;;;;;;6.55;1.98;;;16.10;99.90;;;;;;5054067;28;20037;-58
2022/07/02 06:22:06;;;;;;;4.13;1.77;;;16.20;99.90;;;;;;5053433;28;20023;-57
2022/07/02 06:24:31;;;;;;;4.35;1.60;;;16.30;99.90;;;;;;5053232;28;20029;-57
2022/07/02 06:26:57;;;;;;;6.07;1.90;;;16.30;99.90;;;;;;5053545;28;20036;-57
2022/07/02 06:29:23;;;;;;;6.00;1.80;;;16.40;99.90;;;;;;5052083;28;20021;-57
2022/07/02 06:31:49;;;;;;;3.17;1.70;;;16.50;99.90;;;;;;5053883;28;20481;-58
2022/07/02 06:34:14;;;;;;;6.05;1.40;;;16.70;99.90;;;;;;5053015;28;20024;-57
2022/07/02 06:36:40;;;;;;;3.65;1.20;;;16.80;99.90;;;;;;5053371;28;20025;-58
2022/07/02 06:39:06;;;;;;;3.35;1.40;;;16.90;99.90;;;;;;5053545;28;20025;-57
2022/07/02 06:44:16;;;;;;;4.78;1.35;;;17.30;99.90;;;;;;5053049;28;20128;-57
2022/07/02 06:46:41;;;;;;;3.05;1.50;;;18.70;99.90;;;;;;5052584;28;20104;-57
2022/07/02 06:49:07;;;;;;;3.85;1.10;;;20.10;99.90;;;;;;5053068;28;20090;-57
2022/07/02 06:51:33;;;;;;;6.38;1.73;;;20.90;99.90;;;;;;5052829;28;20036;-57
2022/07/02 06:54:01;;;;;;;6.53;1.30;;;21.60;99.90;;;;;;5053034;28;20389;-57
2022/07/02 06:56:35;;;;;;;2.90;0.90;;;22.60;99.90;;;;;;5052877;28;20036;-57
2022/07/02 06:59:01;;;;;;;3.13;0.93;;;23.60;99.90;;;;;;5052855;28;20035;-57
2022/07/02 07:01:26;;;;;;;3.78;1.00;;;23.90;99.40;;;;;;5050714;28;20048;-60
2022/07/02 07:03:52;;;;;;;3.38;0.80;;;24.40;98.00;;;;;;5052625;28;20022;-60
2022/07/02 07:06:22;;;;;;;3.85;0.80;;;24.50;96.70;;;;;;5052601;28;20493;-60
2022/07/02 07:08:52;;;;;;;6.57;0.82;;;24.30;96.70;;;;;;5051526;28;20024;-60
2022/07/02 07:11:20;;;;;;;3.15;0.90;;;24.80;95.70;;;;;;5052426;28;20058;-61
2022/07/02 07:13:45;;;;;;;2.97;0.80;;;25.70;92.90;;;;;;5052837;28;20035;-60
2022/07/02 07:16:11;;;;;;;3.70;0.70;;;26.80;90.50;;;;;;5052334;28;20108;-60
2022/07/02 07:18:37;;;;;;;2.83;0.85;;;27.60;85.70;;;;;;5052420;28;20028;-60
2022/07/02 07:21:02;;;;;;;3.20;0.70;;;27.30;83.20;;;;;;5052670;28;20021;-60
2022/07/02 07:23:28;;;;;;;2.28;0.80;;;26.60;83.00;;;;;;5051014;28;20420;-58
2022/07/02 07:25:54;;;;;;;2.25;0.80;;;25.70;87.10;;;;;;5052214;28;20421;-57
2022/07/02 07:28:21;;;;;;;5.70;0.85;;;25.50;87.70;;;;;;5052418;28;20041;-58
2022/07/02 07:30:46;;;;;;;3.72;1.02;;;25.90;85.70;;;;;;5052291;28;20037;-58
2022/07/02 07:33:12;;;;;;;4.90;0.70;;;26.60;84.90;;;;;;5052244;28;20037;-58
2022/07/02 07:35:37;;;;;;;2.92;0.70;;;25.60;84.90;;;;;;5051880;28;20068;-58
2022/07/02 07:38:03;;;;;;;4.03;0.90;;;25.50;87.80;;;;;;5052147;28;20036;-58
2022/07/02 07:40:29;;;;;;;2.22;1.15;;;26.20;85.10;;;;;;5051971;28;20041;-58
2022/07/02 07:42:55;;;;;;;3.35;1.00;;;26.30;85.50;;;;;;5051691;28;20021;-58
2022/07/02 07:45:20;;;;;;;4.82;0.95;;;26.40;86.60;;;;;;5052015;28;20508;-59
2022/07/02 07:47:46;;;;;;;1.73;0.60;;;26.70;84.00;;;;;;5052169;28;20040;-58
2022/07/02 07:50:12;;;;;;;2.83;0.80;;;27.30;83.30;;;;;;5051817;28;20479;-58
2022/07/02 07:52:37;;;;;;;2.78;1.13;;;26.80;82.00;;;;;;5051920;28;20037;-58
2022/07/02 07:55:04;;;;;;;1.98;0.63;;;26.30;83.10;;;;;;5050636;28;20107;-58
2022/07/02 07:57:30;;;;;;;2.80;1.00;;;26.40;84.00;;;;;;5052123;28;20062;-59
2022/07/02 07:59:55;;;;;;;4.20;0.77;;;25.70;84.50;;;;;;5051900;28;20583;-59
2022/07/02 08:02:21;;;;;;;2.65;0.73;;;25.90;85.70;;;;;;5051437;28;20120;-59
2022/07/02 08:04:47;;;;;;;1.05;0.70;;;26.10;84.40;;;;;;5051896;28;20405;-58
2022/07/02 08:07:12;;;;;;;3.95;0.90;;;26.20;82.80;;;;;;5051599;28;20025;-60
2022/07/02 08:09:38;;;;;;;3.35;0.90;;;25.70;85.40;;;;;;5051669;28;20551;-62
2022/07/02 08:12:05;;;;;;;2.10;0.80;;;25.30;86.60;;;;;;5051687;28;20485;-59
2022/07/02 08:14:30;;;;;;;1.55;0.70;;;25.30;86.90;;;;;;5051733;28;20028;-59
2022/07/02 08:16:56;;;;;;;5.88;0.80;;;25.90;85.20;;;;;;5051413;28;20470;-58
2022/07/02 08:19:22;;;;;;;2.38;0.68;;;26.10;83.50;;;;;;5051603;28;20025;-59
2022/07/02 08:21:47;;;;;;;3.22;0.90;;;25.50;86.10;;;;;;5049776;28;20032;-59
2022/07/02 08:24:13;;;;;;;4.10;1.05;;;25.60;85.70;;;;;;5051084;28;20033;-59
2022/07/02 08:26:38;;;;;;;1.98;0.80;;;25.50;86.40;;;;;;5050847;28;20043;-59
2022/07/02 08:29:04;;;;;;;1.67;0.70;;;25.90;86.10;;;;;;5051236;28;20025;-59
2022/07/02 08:31:30;;;;;;;3.13;0.90;;;26.70;84.30;;;;;;5051282;28;20119;-59
2022/07/02 08:33:55;;;;;;;2.72;0.75;;;26.90;81.20;;;;;;5051062;28;20024;-59
2022/07/02 08:36:21;;;;;;;2.10;0.80;;;26.60;81.40;;;;;;5051777;28;20037;-59
2022/07/02 08:38:47;;;;;;;1.90;0.70;;;26.10;82.70;;;;;;5051468;28;20058;-59
2022/07/02 08:41:13;;;;;;;4.18;0.98;;;26.20;83.20;;;;;;5051474;28;20040;-59
2022/07/02 08:43:41;;;;;;;4.13;0.70;;;25.90;84.40;;;;;;5051717;28;20359;-59
2022/07/02 08:46:07;;;;;;;1.65;0.60;;;26.60;84.10;;;;;;5051104;28;20029;-59
2022/07/02 08:48:34;;;;;;;2.15;0.88;;;26.90;81.40;;;;;;5050847;28;20096;-59
2022/07/02 08:51:00;;;;;;;2.47;0.80;;;26.30;83.60;;;;;;5050753;28;20041;-59
2022/07/02 08:53:26;;;;;;;1.48;0.80;;;26.50;83.90;;;;;;5050949;28;20095;-59
2022/07/02 08:55:54;;;;;;;1.90;0.75;;;26.80;81.60;;;;;;5051275;28;20481;-59
2022/07/02 08:58:21;;;;;;;2.05;0.80;;;27.10;81.00;;;;;;5051456;28;20405;-59
2022/07/02 09:00:48;;;;;;;3.53;0.73;;;27.10;81.00;;;;;;5050774;28;20036;-60
2022/07/02 09:03:17;;;;;;;3.10;0.98;;;26.90;81.80;;;;;;5049562;28;20175;-60
2022/07/02 09:05:47;;;;;;;1.73;0.90;;;26.80;83.20;;;;;;5050521;28;20119;-60
2022/07/02 09:08:13;;;;;;;2.15;0.77;;;26.80;81.60;;;;;;5049619;28;20183;-57
2022/07/02 09:10:39;;;;;;;1.85;0.80;;;26.50;83.50;;;;;;5051219;28;20491;-58
2022/07/02 09:13:05;;;;;;;2.35;0.80;;;26.50;83.20;;;;;;5050780;28;20092;-58
2022/07/02 09:15:33;;;;;;;2.28;0.80;;;26.80;81.60;;;;;;5050407;28;20592;-58
2022/07/02 09:17:59;;;;;;;3.35;1.10;;;26.50;83.20;;;;;;5051211;28;20029;-59
2022/07/02 09:20:24;;;;;;;2.15;1.00;;;26.40;83.10;;;;;;5050659;28;20033;-58
2022/07/02 09:22:53;;;;;;;3.83;0.85;;;26.70;82.70;;;;;;5050973;28;20114;-58
2022/07/02 09:25:24;;;;;;;2.97;0.82;;;26.70;83.10;;;;;;5054953;28;20063;-58
2022/07/02 09:27:58;;;;;;;2.83;0.90;;;27.20;81.80;;;;;;5054421;28;20021;-58
2022/07/02 09:30:27;;;;;;;3.08;0.90;;;27.50;81.00;;;;;;5054348;28;20061;-58
2022/07/02 09:33:28;;;;;;;3.17;1.25;;;26.50;82.70;;;;;;5054190;28;20045;-59
2022/07/02 09:35:38;;;;;;;3.95;0.90;;;26.00;84.40;;;;;;5054509;28;20072;-58
2022/07/02 09:38:09;;;;;;;2.33;1.38;;;25.80;86.70;;;;;;5054527;28;20117;-58
2022/07/02 09:40:35;;;;;;;2.85;1.25;;;26.00;85.80;;;;;;5054586;28;20033;-58
2022/07/02 09:43:00;;;;;;;4.05;2.10;;;26.20;84.80;;;;;;5052643;28;20031;-58
2022/07/02 09:45:26;;;;;;;5.57;2.30;;;25.80;83.80;;;;;;5053932;28;20025;-59
2022/07/02 09:47:53;;;;;;;3.58;1.80;;;25.90;84.00;;;;;;5054520;28;20057;-59
2022/07/02 09:50:21;;;;;;;2.50;1.67;;;26.70;81.00;;;;;;5053905;28;20098;-59
2022/07/02 09:52:57;;;;;;;5.57;1.67;;;26.80;83.10;;;;;;5054006;28;20051;-58
2022/07/02 09:55:29;;;;;;;3.60;1.60;;;26.80;80.60;;;;;;5054245;28;20453;-58
2022/07/02 09:57:58;;;;;;;1.35;1.10;;;26.80;81.70;;;;;;5054362;28;20482;-58
2022/07/02 10:00:27;;;;;;;2.83;1.13;;;26.60;80.40;;;;;;5054489;28;20366;-58
2022/07/02 10:02:55;;;;;;;2.88;1.35;;;26.50;81.70;;;;;;5053786;28;20398;-58
2022/07/02 10:05:28;;;;;;;4.10;1.08;;;26.70;82.30;;;;;;5052561;28;20116;-59
2022/07/02 10:07:55;;;;;;;1.67;0.80;;;26.80;80.10;;;;;;5054039;28;20079;-59
2022/07/02 10:10:48;;;;;;;1.33;0.63;;;26.70;82.70;;;;;;5053992;28;20033;-59
2022/07/02 10:13:15;;;;;;;1.33;0.60;;;26.30;78.90;;;;;;5053870;28;20021;-58
2022/07/02 10:16:04;;;;;;;2.75;0.50;;;25.50;81.30;;;;;;5052483;28;20489;-58
2022/07/02 10:18:30;;;;;;;3.05;0.60;;;24.60;83.50;;;;;;5053141;28;20048;-58
2022/07/02 10:20:59;;;;;;;3.10;0.77;;;24.20;85.70;;;;;;5052406;28;20040;-58
2022/07/02 10:23:26;;;;;;;2.17;0.77;;;24.00;87.50;;;;;;5053708;28;20392;-58
2022/07/02 10:25:53;;;;;;;2.50;0.80;;;24.50;86.50;;;;;;5053610;28;20056;-58
2022/07/02 10:28:21;;;;;;;2.65;0.82;;;24.90;85.60;;;;;;5053762;28;20029;-59
2022/07/02 10:30:47;;;;;;;1.73;0.70;;;25.50;87.20;;;;;;5053137;28;20035;-58
2022/07/02 10:33:43;;;;;;;4.55;0.82;;;25.80;83.20;;;;;;5053397;28;20025;-58
2022/07/02 10:36:12;;;;;;;1.27;0.57;;;25.90;79.60;;;;;;5053079;28;20042;-58
2022/07/02 10:38:39;;;;;;;1.73;0.57;;;25.00;82.60;;;;;;5052216;28;20112;-58
2022/07/02 10:41:12;;;;;;;3.03;0.60;;;25.10;83.40;;;;;;5053418;28;20021;-58
2022/07/02 10:43:39;;;;;;;1.02;0.40;;;25.70;82.30;;;;;;5051774;28;20025;-58
2022/07/02 10:46:10;;;;;;;1.33;0.47;;;25.70;78.50;;;;;;5053166;28;20109;-58
2022/07/02 10:48:46;;;;;;;2.38;0.40;;;25.90;78.60;;;;;;5053139;28;20025;-59
2022/07/02 10:51:22;;;;;;;2.63;0.60;;;26.10;77.50;;;;;;5052926;28;20076;-59
2022/07/02 10:53:50;;;;;;;1.70;0.63;;;26.10;77.20;;;;;;5052737;28;20036;-58
2022/07/02 10:56:16;;;;;;;1.52;0.40;;;26.50;76.80;;;;;;5053291;28;20037;-59
2022/07/02 10:58:42;;;;;;;2.50;0.63;;;26.60;74.60;;;;;;5053117;28;20021;-59
2022/07/02 11:01:15;;;;;;;2.17;0.47;;;26.40;75.60;;;;;;5052676;28;20033;-59
2022/07/02 11:03:57;;;;;;;1.85;0.60;;;26.30;76.50;;;;;;5052765;28;20064;-59
2022/07/02 11:06:24;;;;;;;1.73;0.40;;;25.40;77.40;;;;;;5051685;28;20025;-59
2022/07/02 11:09:10;;;;;;;1.92;0.40;;;25.40;81.00;;;;;;5051628;28;20045;-58
2022/07/02 11:11:36;;;;;;;0.63;0.40;;;26.30;79.60;;;;;;5053175;28;20035;-58
2022/07/02 11:14:05;;;;;;;0.63;0.40;;;26.60;76.70;;;;;;5052710;28;20456;-58
2022/07/02 11:16:34;;;;;;;5.07;0.50;;;25.80;79.00;;;;;;5050729;28;20120;-58
2022/07/02 11:19:00;;;;;;;1.08;0.50;;;25.50;77.60;;;;;;5052537;28;20017;-58
2022/07/02 11:21:26;;;;;;;2.60;0.50;;;25.50;77.10;;;;;;5052091;28;20037;-58
2022/07/02 11:23:53;;;;;;;1.73;0.60;;;25.10;81.00;;;;;;5050733;28;20123;-58
2022/07/02 11:26:27;;;;;;;2.00;0.50;;;24.60;81.80;;;;;;5052446;28;20029;-58
2022/07/02 11:28:54;;;;;;;1.90;0.65;;;24.30;82.10;;;;;;5052595;28;20060;-58
2022/07/02 11:31:22;;;;;;;1.77;0.32;;;24.40;82.10;;;;;;5050873;28;20025;-58
2022/07/02 11:33:48;;;;;;;1.85;0.30;;;25.30;80.40;;;;;;5051994;28;20083;-58
2022/07/02 11:36:13;;;;;;;1.27;0.57;;;25.30;76.60;;;;;;5052313;28;20029;-58
2022/07/02 11:38:50;;;;;;;3.20;0.60;;;25.40;79.10;;;;;;5052319;28;20025;-58
2022/07/02 11:41:26;;;;;;;1.63;0.45;;;25.90;80.30;;;;;;5052276;28;20029;-58
2022/07/02 11:43:57;;;;;;;0.77;0.28;;;26.80;76.10;;;;;;5052077;28;20021;-59
2022/07/02 11:46:28;;;;;;;3.00;0.40;;;27.00;76.40;;;;;;5050025;28;20082;-60
2022/07/02 11:48:56;;;;;;;0.68;0.30;;;27.20;74.70;;;;;;5053017;28;20045;-59
2022/07/02 11:51:22;;;;;;;1.08;0.35;;;27.50;73.50;;;;;;5051659;28;20048;-59
2022/07/02 11:54:00;;;;;;;1.98;0.38;;;27.40;71.10;;;;;;5051917;28;20542;-59
2022/07/02 11:56:26;;;;;;;1.15;0.45;;;27.20;72.70;;;;;;5051731;28;20061;-59
2022/07/02 11:58:52;;;;;;;1.20;0.40;;;27.60;71.80;;;;;;5052103;28;20030;-59
2022/07/02 12:01:21;;;;;;;4.38;0.52;;;27.60;72.90;;;;;;5051736;28;20552;-59
2022/07/02 12:03:48;;;;;;;2.63;0.40;;;27.50;70.90;;;;;;5050216;28;20060;-59
2022/07/02 12:06:14;;;;;;;1.92;0.50;;;26.90;71.60;;;;;;5051852;28;20021;-59
2022/07/02 12:08:41;;;;;;;2.08;0.40;;;25.80;73.70;;;;;;5051658;28;20383;-59
2022/07/02 12:11:12;;;;;;;2.70;0.50;;;26.30;73.20;;;;;;5051932;28;20032;-59
2022/07/02 12:13:38;;;;;;;2.28;0.55;;;27.00;72.60;;;;;;5052136;28;20033;-60
2022/07/02 12:16:04;;;;;;;1.10;0.40;;;26.90;72.80;;;;;;5052149;28;20390;-59
2022/07/02 12:18:30;;;;;;;1.15;0.45;;;27.10;71.90;;;;;;5052294;28;20025;-59
2022/07/02 12:20:55;;;;;;;0.50;0.30;;;26.40;73.00;;;;;;5051943;28;20033;-58
2022/07/02 12:23:21;;;;;;;1.90;0.70;;;26.30;74.40;;;;;;5051512;28;20104;-60
2022/07/02 12:25:48;;;;;;;0.95;0.25;;;26.90;74.60;;;;;;5051469;28;20032;-59
2022/07/02 12:31:03;;;;;;;0.90;0.40;;;27.30;72.40;;;;;;5051515;28;20044;-58
2022/07/02 12:33:33;;;;;;;2.60;0.40;;;27.20;70.70;;;;;;5051255;28;20017;-57
2022/07/02 12:36:00;;;;;;;1.45;0.50;;;27.40;70.00;;;;;;5051351;28;20067;-58
2022/07/02 12:38:27;;;;;;;0.95;0.43;;;27.50;69.40;;;;;;5051724;28;20432;-59
2022/07/02 12:41:00;;;;;;;1.05;0.40;;;27.00;69.90;;;;;;5051916;28;20037;-59
2022/07/02 12:43:26;;;;;;;1.88;0.57;;;26.70;71.10;;;;;;5050519;28;20025;-59
2022/07/02 12:45:52;;;;;;;2.38;0.40;;;26.80;72.10;;;;;;5051825;28;20078;-59
2022/07/02 12:48:19;;;;;;;3.38;0.60;;;26.90;73.50;;;;;;5051240;28;20049;-59
2022/07/02 12:50:51;;;;;;;1.58;0.38;;;27.30;71.40;;;;;;5051076;28;20029;-59
2022/07/02 12:53:30;;;;;;;3.63;0.30;;;27.90;69.30;;;;;;5051302;28;20025;-59
2022/07/02 12:56:03;;;;;;;1.58;0.40;;;28.50;71.00;;;;;;5051504;28;20545;-59
2022/07/02 12:58:29;;;;;;;1.38;0.40;;;28.90;65.70;;;;;;5054377;28;20430;-59